createdAt,value
2023-10-18T00:00:25.188Z,7.86
2023-10-18T00:05:50.406Z,9.18
2023-10-18T00:10:54.465Z,12.08
2023-10-18T00:16:09.904Z,11.22
2023-10-18T00:21:13.330Z,9.07
2023-10-18T00:26:16.044Z,7.86
2023-10-18T00:31:28.604Z,8.79
2023-10-18T00:36:33.593Z,11.10
2023-10-18T00:41:44.260Z,9.66
2023-10-18T00:46:58.519Z,8.10
2023-10-18T00:52:02.334Z,8.26
2023-10-18T00:57:10.104Z,11.35
2023-10-18T01:02:21.603Z,10.47
2023-10-18T01:07:25.308Z,8.65
2023-10-18T01:12:30.374Z,7.71
2023-10-18T01:17:44.036Z,7.78
2023-10-18T01:22:47.631Z,10.72
2023-10-18T01:27:50.801Z,10.17
2023-10-18T01:32:55.196Z,8.54
2023-10-18T01:38:04.654Z,8.93
2023-10-18T01:43:13.996Z,11.72
2023-10-18T01:48:19.538Z,10.27
2023-10-18T01:53:24.717Z,8.46
2023-10-18T01:58:28.035Z,7.37
2023-10-18T02:03:35.913Z,8.22
2023-10-18T02:08:41.185Z,11.14
2023-10-18T02:13:43.807Z,10.33
2023-10-18T02:18:50.990Z,8.44
2023-10-18T02:23:58.317Z,7.29
2023-10-18T02:29:15.725Z,6.64
2023-10-18T02:34:29.987Z,7.51
2023-10-18T02:39:42.420Z,10.05
2023-10-18T02:44:51.805Z,11.47
2023-10-18T02:49:54.584Z,10.03
2023-10-18T02:55:10.191Z,8.39
2023-10-18T03:00:18.295Z,7.51
2023-10-18T03:05:21.765Z,8.12
2023-10-18T03:10:34.283Z,10.21
2023-10-18T03:15:59.204Z,10.31
2023-10-18T03:21:21.945Z,8.58
2023-10-18T03:26:35.987Z,7.68
2023-10-18T03:31:45.184Z,8.91
2023-10-18T03:36:53.196Z,11.04
2023-10-18T03:42:03.103Z,11.31
2023-10-18T03:47:15.689Z,9.55
2023-10-18T03:52:18.523Z,8.40
2023-10-18T03:57:31.895Z,8.27
2023-10-18T04:02:38.037Z,10.09
2023-10-18T04:07:43.544Z,10.56
2023-10-18T04:12:48.634Z,9.18
2023-10-18T04:18:04.119Z,8.96
2023-10-18T04:23:29.421Z,10.73
2023-10-18T04:28:39.622Z,10.47
2023-10-18T04:33:46.961Z,8.94
2023-10-18T04:38:53.055Z,10.49
2023-10-18T04:44:07.030Z,11.66
2023-10-18T04:49:09.992Z,9.64
2023-10-18T04:54:18.009Z,9.49
2023-10-18T04:59:57.020Z,12.10
2023-10-18T05:05:05.328Z,10.45
2023-10-18T05:10:21.800Z,8.96
2023-10-18T05:15:30.499Z,11.29
2023-10-18T05:20:43.121Z,12.48
2023-10-18T05:25:47.903Z,10.27
2023-10-18T05:31:24.617Z,8.98
2023-10-18T05:36:30.956Z,11.59
2023-10-18T05:41:46.696Z,13.17
2023-10-18T05:46:52.138Z,10.86
2023-10-18T05:52:10.246Z,10.07
2023-10-18T05:57:19.522Z,13.02
2023-10-18T06:08:15.812Z,9.76
2023-10-18T06:13:22.347Z,11.17
2023-10-18T06:18:32.428Z,12.94
2023-10-18T06:41:46.099Z,11.76
2023-10-18T06:46:51.291Z,10.14
2023-10-18T06:57:40.037Z,12.73
2023-10-18T07:02:45.740Z,11.07
2023-10-18T07:14:30.235Z,12.59
2023-10-18T07:19:49.391Z,12.33
2023-10-18T07:30:52.006Z,10.90
2023-10-18T07:35:56.281Z,13.48
2023-10-18T07:41:19.852Z,17.65
2023-10-18T07:46:29.261Z,18.33
2023-10-18T07:51:44.429Z,17.87
2023-10-18T07:56:50.649Z,16.36
2023-10-18T08:01:55.695Z,14.94
2023-10-18T08:06:58.572Z,13.41
2023-10-18T08:12:07.433Z,12.15
2023-10-18T08:17:10.643Z,11.34
2023-10-18T08:22:15.191Z,11.55
2023-10-18T08:27:19.294Z,13.52
2023-10-18T08:32:31.396Z,12.68
2023-10-18T08:44:17.906Z,11.82
2023-10-18T08:49:33.641Z,11.81
2023-10-18T08:54:42.252Z,12.18
2023-10-18T08:59:49.811Z,12.24
2023-10-18T09:05:00.398Z,12.31
2023-10-18T09:10:06.363Z,12.56
2023-10-18T09:15:45.136Z,13.67
2023-10-18T09:21:09.971Z,13.81
2023-10-18T09:26:19.787Z,13.68
2023-10-18T09:31:27.628Z,13.77
2023-10-18T09:36:31.263Z,14.12
2023-10-18T09:41:34.186Z,14.21
2023-10-18T09:46:41.128Z,14.29
2023-10-18T09:51:54.602Z,14.33
2023-10-18T09:57:00.605Z,14.34
2023-10-18T10:02:16.678Z,16.16
2023-10-18T10:07:44.155Z,18.29
2023-10-18T10:12:52.389Z,19.69
2023-10-18T10:18:02.099Z,19.22
2023-10-18T10:23:16.492Z,17.71
2023-10-18T10:29:06.441Z,16.54
2023-10-18T10:34:25.728Z,15.56
2023-10-18T10:39:35.777Z,15.05
2023-10-18T10:45:27.321Z,14.52
2023-10-18T10:50:43.806Z,14.30
2023-10-18T10:55:57.478Z,14.31
2023-10-18T11:01:01.049Z,14.25
2023-10-18T11:06:07.417Z,14.05
2023-10-18T11:11:27.465Z,13.99
2023-10-18T11:16:35.009Z,14.06
2023-10-18T11:21:43.216Z,14.06
2023-10-18T11:26:51.971Z,13.98
2023-10-18T11:32:00.377Z,13.86
2023-10-18T12:11:27.064Z,13.16
2023-10-18T12:16:35.919Z,12.93
2023-10-18T12:42:47.866Z,14.58
2023-10-18T12:47:53.019Z,14.01
2023-10-18T12:53:20.853Z,13.60
2023-10-18T12:58:32.793Z,13.40
2023-10-18T13:03:38.912Z,13.24
2023-10-18T13:09:07.189Z,14.19
2023-10-18T13:14:16.853Z,16.21
2023-10-18T13:19:20.413Z,14.90
2023-10-18T13:24:24.025Z,14.11
2023-10-18T13:29:28.060Z,13.66
2023-10-18T13:35:05.364Z,13.29
2023-10-18T13:40:19.946Z,12.92
2023-10-18T13:45:29.860Z,14.17
2023-10-18T13:50:43.245Z,17.24
2023-10-18T13:55:46.257Z,16.14
2023-10-18T14:00:52.599Z,14.81
2023-10-18T14:05:59.144Z,13.98
2023-10-18T14:11:02.061Z,13.29
2023-10-18T14:16:13.519Z,12.78
2023-10-18T14:21:22.961Z,12.43
2023-10-18T14:26:26.086Z,14.40
2023-10-18T14:31:31.193Z,17.11
2023-10-18T14:36:34.793Z,16.43
2023-10-18T14:41:40.422Z,14.77
2023-10-18T14:46:46.102Z,13.81
2023-10-18T14:51:52.387Z,13.12
2023-10-18T14:56:57.267Z,12.61
2023-10-18T15:02:00.886Z,12.21
2023-10-18T15:07:05.943Z,13.97
2023-10-18T15:12:11.765Z,16.36
2023-10-18T15:17:15.987Z,15.90
2023-10-18T15:22:21.830Z,14.31
2023-10-18T15:27:27.391Z,13.41
2023-10-18T15:32:32.462Z,12.86
2023-10-18T15:37:37.131Z,12.42
2023-10-18T15:42:39.743Z,12.92
2023-10-18T15:47:44.163Z,14.67
2023-10-18T15:52:49.410Z,14.45
2023-10-18T15:57:52.261Z,13.09
2023-10-18T16:02:56.230Z,12.34
2023-10-18T16:07:59.254Z,13.45
2023-10-18T16:13:05.947Z,15.65
2023-10-18T16:18:11.463Z,16.44
2023-10-18T16:23:16.602Z,14.39
2023-10-18T16:28:19.433Z,13.20
2023-10-18T16:33:23.127Z,12.44
2023-10-18T16:38:27.261Z,11.89
2023-10-18T16:43:29.957Z,13.68
2023-10-18T16:48:44.190Z,16.49
2023-10-18T16:53:47.819Z,15.32
2023-10-18T16:58:53.431Z,13.57
2023-10-18T17:03:57.803Z,12.51
2023-10-18T17:09:03.899Z,11.71
2023-10-18T17:14:07.875Z,12.00
2023-10-18T17:19:18.326Z,14.65
2023-10-18T17:24:23.802Z,16.47
2023-10-18T17:29:33.921Z,15.30
2023-10-18T17:34:37.922Z,13.35
2023-10-18T17:39:40.673Z,12.21
2023-10-18T17:44:45.398Z,12.33
2023-10-18T17:49:50.966Z,14.17
2023-10-18T17:54:53.637Z,16.19
2023-10-18T18:00:07.657Z,16.28
2023-10-18T18:05:13.900Z,14.08
2023-10-18T18:10:19.706Z,12.73
2023-10-18T18:15:22.550Z,12.28
2023-10-18T18:20:25.653Z,15.10
2023-10-18T18:25:33.306Z,16.63
2023-10-18T18:30:36.511Z,14.95
2023-10-18T18:35:40.383Z,13.18
2023-10-18T18:40:49.465Z,12.95
2023-10-18T18:45:53.515Z,14.96
2023-10-18T18:50:56.373Z,16.85
2023-10-18T18:56:00.720Z,15.67
2023-10-18T19:01:09.023Z,13.59
2023-10-18T19:06:14.498Z,12.31
2023-10-18T19:11:25.371Z,11.45
2023-10-18T19:16:28.474Z,11.94
2023-10-18T19:21:32.657Z,14.79
2023-10-18T19:26:38.628Z,16.19
2023-10-18T19:31:41.752Z,14.52
2023-10-18T19:36:44.493Z,12.71
2023-10-18T19:41:51.661Z,11.70
2023-10-18T19:47:25.515Z,11.04
2023-10-18T19:52:24.359Z,12.38
2023-10-18T19:57:29.466Z,14.68
2023-10-18T20:02:32.238Z,15.98
2023-10-18T20:07:35.565Z,15.99
2023-10-18T20:12:38.223Z,13.86
2023-10-18T20:17:43.701Z,12.47
2023-10-18T20:22:50.222Z,12.35
2023-10-18T20:27:56.623Z,13.28
2023-10-18T20:33:00.645Z,14.28
2023-10-18T20:38:07.450Z,15.54
2023-10-18T20:43:12.497Z,14.99
2023-10-18T20:48:20.223Z,13.09
2023-10-18T20:53:24.484Z,13.37
2023-10-18T20:58:28.800Z,15.54
2023-10-18T21:03:37.635Z,13.69
2023-10-18T21:08:42.997Z,12.14
2023-10-18T21:13:47.410Z,14.24
2023-10-18T21:18:53.030Z,15.25
2023-10-18T21:23:58.385Z,13.12
2023-10-18T21:29:01.826Z,11.65
2023-10-18T21:34:04.859Z,12.09
2023-10-18T21:39:10.918Z,14.59
2023-10-18T21:44:14.754Z,14.91
2023-10-18T21:49:20.041Z,12.64
2023-10-18T21:54:25.608Z,11.14
2023-10-18T21:59:31.693Z,10.11
2023-10-18T22:04:36.977Z,10.05
2023-10-18T22:09:45.499Z,11.28
2023-10-18T22:14:51.208Z,13.62
2023-10-18T22:20:02.314Z,14.76
2023-10-18T22:25:21.902Z,12.63
2023-10-18T22:30:31.851Z,10.84
2023-10-18T22:35:35.913Z,11.04
2023-10-18T22:40:39.683Z,12.99
2023-10-18T22:46:06.740Z,13.84
2023-10-18T22:51:09.521Z,13.11
2023-10-18T22:56:30.766Z,11.04
2023-10-18T23:01:37.482Z,9.63
2023-10-18T23:06:42.386Z,8.62
2023-10-18T23:12:12.351Z,9.01
2023-10-18T23:17:18.055Z,11.44
2023-10-18T23:22:36.812Z,12.47
2023-10-18T23:27:58.218Z,12.96
2023-10-18T23:33:08.541Z,11.55
2023-10-18T23:38:37.878Z,10.08
2023-10-18T23:43:40.857Z,12.13
2023-10-18T23:48:47.753Z,13.31
2023-10-18T23:53:52.869Z,11.59
2023-10-18T23:58:56.182Z,9.83
